Time;durP1;ratioP1;P1;durP2;ratioP2;P2;SDS_P1;SDS_P2;PMS_P1;PMS_P2;Temp;Humidity;BMP_temperature;BMP_pressure;BME280_temperature;BME280_humidity;BME280_pressure;Samples;Min_cycle;Max_cycle;Signal;HPM_P1;HPM_P2
2022/01/23 00:00:35;;;;;;;12.67;9.30;;;7.20;99.90;;;;;;5062326;28;47413;-80
2022/01/23 00:03:05;;;;;;;14.40;9.83;;;7.20;99.90;;;;;;5063985;28;37322;-78
2022/01/23 00:05:37;;;;;;;15.70;9.63;;;7.20;99.90;;;;;;5063415;28;37785;-79
2022/01/23 00:08:05;;;;;;;19.42;9.32;;;7.10;99.90;;;;;;5081943;27;38374;-79
2022/01/23 00:10:32;;;;;;;16.43;9.90;;;7.10;99.90;;;;;;5077798;28;38433;-79
2022/01/23 00:13:09;;;;;;;12.90;10.00;;;7.10;99.90;;;;;;5059126;28;37723;-80
2022/01/23 00:18:20;;;;;;;14.50;9.87;;;7.10;99.90;;;;;;5077400;28;38535;-80
2022/01/23 00:20:47;;;;;;;17.97;9.87;;;7.10;99.90;;;;;;5081905;27;38168;-80
2022/01/23 00:23:34;;;;;;;10.53;8.73;;;7.10;99.90;;;;;;5079818;27;39413;-79
2022/01/23 00:31:31;;;;;;;13.33;8.90;;;7.20;99.90;;;;;;5077451;28;49646;-80
2022/01/23 00:33:59;;;;;;;10.73;7.83;;;7.10;99.90;;;;;;5059647;28;39165;-80
2022/01/23 00:36:27;;;;;;;11.87;9.30;;;7.10;99.90;;;;;;5076843;27;39441;-80
2022/01/23 00:38:53;;;;;;;16.27;10.67;;;7.10;99.90;;;;;;5063078;28;35695;-80
2022/01/23 00:41:19;;;;;;;14.60;9.17;;;7.10;99.90;;;;;;5061701;28;35803;-79
2022/01/23 00:43:46;;;;;;;14.43;8.90;;;7.10;99.90;;;;;;5078552;27;38826;-80
2022/01/23 00:51:33;;;;;;;16.37;9.53;;;7.10;99.90;;;;;;5078657;27;38088;-79
2022/01/23 00:54:02;;;;;;;15.97;8.70;;;7.00;99.90;;;;;;5063667;28;36417;-80
2022/01/23 00:56:28;;;;;;;18.27;10.30;;;7.10;99.90;;;;;;5062831;28;47234;-80
2022/01/23 00:58:54;;;;;;;14.37;9.20;;;7.00;99.90;;;;;;5080253;28;37844;-80
2022/01/23 01:01:20;;;;;;;16.73;10.53;;;7.10;99.90;;;;;;5064167;27;36070;-80
2022/01/23 01:03:47;;;;;;;12.80;9.20;;;7.00;99.90;;;;;;5083543;28;38803;-80
2022/01/23 01:06:14;;;;;;;13.53;8.47;;;7.00;99.90;;;;;;5062039;27;37998;-80
2022/01/23 01:08:41;;;;;;;16.07;8.97;;;7.00;99.90;;;;;;5064317;28;38246;-80
2022/01/23 01:33:03;;;;;;;22.73;11.13;;;6.90;99.90;;;;;;5078574;27;49711;-80
2022/01/23 01:35:42;;;;;;;16.60;11.17;;;6.90;99.90;;;;;;5059559;28;47225;-79
2022/01/23 01:38:08;;;;;;;14.60;10.57;;;6.90;99.90;;;;;;5062063;27;38238;-79
2022/01/23 01:40:34;;;;;;;18.70;10.67;;;6.90;99.90;;;;;;5064427;28;37202;-79
2022/01/23 01:43:00;;;;;;;15.17;10.90;;;6.90;99.90;;;;;;5077864;28;37461;-80
2022/01/23 01:45:29;;;;;;;14.60;10.93;;;6.90;99.90;;;;;;5057882;28;46899;-80
2022/01/23 01:47:57;;;;;;;16.27;10.57;;;6.90;99.90;;;;;;5058047;28;38279;-80
2022/01/23 01:50:23;;;;;;;20.70;11.87;;;6.90;99.90;;;;;;5060878;27;37670;-80
2022/01/23 01:52:49;;;;;;;18.60;11.10;;;6.90;99.90;;;;;;5061832;28;36244;-80
2022/01/23 01:55:24;;;;;;;15.87;11.07;;;6.90;99.90;;;;;;5060803;27;38271;-80
2022/01/23 01:57:55;;;;;;;15.17;10.60;;;6.90;99.90;;;;;;5080180;28;38987;-79
2022/01/23 02:10:50;;;;;;;17.23;12.47;;;7.00;99.90;;;;;;5080807;28;38859;-79
2022/01/23 02:13:26;;;;;;;23.13;14.73;;;7.00;99.90;;;;;;5079596;27;37407;-79
2022/01/23 02:51:54;;;;;;;22.27;13.13;;;6.80;99.90;;;;;;5079811;27;49627;-80
2022/01/23 02:57:22;;;;;;;19.30;14.13;;;6.80;99.90;;;;;;5019307;28;39254;-80
2022/01/23 02:59:50;;;;;;;24.92;14.73;;;6.80;99.90;;;;;;5061819;28;37977;-80
2022/01/23 03:02:33;;;;;;;22.67;14.07;;;6.80;99.90;;;;;;5076469;28;38465;-79
2022/01/23 03:05:02;;;;;;;31.10;16.00;;;6.90;99.90;;;;;;5060259;28;37739;-79
2022/01/23 03:10:08;;;;;;;26.13;15.73;;;6.90;99.90;;;;;;5076266;28;38968;-79
2022/01/23 03:15:28;;;;;;;22.53;14.90;;;6.90;99.90;;;;;;5075008;27;37521;-79
2022/01/23 03:26:25;;;;;;;23.67;15.03;;;6.90;99.90;;;;;;5080091;27;38385;-79
2022/01/23 03:29:05;;;;;;;22.75;14.50;;;6.80;99.90;;;;;;5080552;28;38122;-80
2022/01/23 03:31:57;;;;;;;19.90;15.03;;;6.80;99.90;;;;;;5060348;28;47449;-80
2022/01/23 03:34:26;;;;;;;20.47;15.60;;;6.70;99.90;;;;;;5078424;28;38228;-80
2022/01/23 03:36:53;;;;;;;26.10;17.10;;;6.70;99.90;;;;;;5081984;27;37943;-80
2022/01/23 03:39:19;;;;;;;25.37;15.83;;;6.80;99.90;;;;;;5060640;28;36068;-80
2022/01/23 03:41:46;;;;;;;30.07;18.10;;;6.80;99.90;;;;;;5062230;28;39135;-80
2022/01/23 03:44:14;;;;;;;21.57;15.50;;;6.80;99.90;;;;;;5083249;28;38513;-80
2022/01/23 03:49:31;;;;;;;27.07;18.93;;;6.80;99.90;;;;;;5082064;28;38613;-80
2022/01/23 03:52:02;;;;;;;25.13;16.97;;;6.80;99.90;;;;;;5075155;27;38872;-80
2022/01/23 03:54:29;;;;;;;21.00;15.63;;;6.80;99.90;;;;;;5081613;28;48776;-79
2022/01/23 03:57:00;;;;;;;24.67;17.17;;;6.80;99.90;;;;;;5062331;28;37443;-80
2022/01/23 03:59:27;;;;;;;24.20;16.77;;;6.80;99.90;;;;;;5085040;28;37632;-80
2022/01/23 04:01:53;;;;;;;28.17;17.80;;;6.80;99.90;;;;;;5077376;27;40175;-80
2022/01/23 04:04:37;;;;;;;25.73;16.00;;;6.80;99.90;;;;;;5065497;28;37470;-80
2022/01/23 04:07:05;;;;;;;24.00;16.73;;;6.80;99.90;;;;;;5062499;28;37693;-79
2022/01/23 04:09:31;;;;;;;22.23;15.10;;;6.80;99.90;;;;;;5078861;28;37576;-80
2022/01/23 04:11:58;;;;;;;25.53;17.53;;;6.80;99.90;;;;;;5079999;27;38591;-80
2022/01/23 04:14:26;;;;;;;24.43;17.23;;;6.80;99.90;;;;;;5078757;28;38295;-79
2022/01/23 04:17:43;;;;;;;29.10;18.47;;;6.80;99.90;;;;;;5077549;27;38299;-80
2022/01/23 04:20:26;;;;;;;26.20;17.50;;;6.80;99.90;;;;;;5081871;28;48153;-80
2022/01/23 04:48:14;;;;;;;24.40;17.90;;;6.70;99.90;;;;;;5077253;27;39549;-80
2022/01/23 05:01:06;;;;;;;33.80;20.80;;;6.70;99.90;;;;;;5078429;28;38680;-80
2022/01/23 05:06:05;;;;;;;26.90;17.80;;;6.70;99.90;;;;;;5083026;27;38991;-79
2022/01/23 05:08:34;;;;;;;27.83;19.30;;;6.70;99.90;;;;;;5080337;28;39123;-80
2022/01/23 05:11:03;;;;;;;24.20;17.33;;;6.70;99.90;;;;;;5063711;28;37950;-80
2022/01/23 05:13:31;;;;;;;31.27;20.97;;;6.70;99.90;;;;;;5083366;28;48854;-80
2022/01/23 05:15:58;;;;;;;27.20;18.20;;;6.70;99.90;;;;;;5061478;28;38199;-80
2022/01/23 05:18:24;;;;;;;29.10;18.60;;;6.70;99.90;;;;;;5061128;28;37584;-79
2022/01/23 05:21:00;;;;;;;30.97;20.20;;;6.70;99.90;;;;;;5060146;28;36900;-80
2022/01/23 05:23:26;;;;;;;35.73;20.23;;;6.70;99.90;;;;;;5078999;28;38072;-80
2022/01/23 05:25:52;;;;;;;29.23;21.40;;;6.70;99.90;;;;;;5059718;28;37691;-80
2022/01/23 05:28:18;;;;;;;27.70;18.73;;;6.70;99.90;;;;;;5063614;28;37320;-80
2022/01/23 05:30:44;;;;;;;36.27;21.27;;;6.70;99.90;;;;;;5075867;27;37467;-80
2022/01/23 05:33:10;;;;;;;30.60;20.47;;;6.70;99.90;;;;;;5075523;27;38159;-80
2022/01/23 05:35:36;;;;;;;33.33;21.07;;;6.60;99.90;;;;;;5060510;28;38639;-80
2022/01/23 05:38:02;;;;;;;28.67;20.57;;;6.70;99.90;;;;;;5065594;28;37388;-80
2022/01/23 05:40:30;;;;;;;32.47;21.93;;;6.60;99.90;;;;;;5081497;27;38630;-80
2022/01/23 05:42:56;;;;;;;28.33;18.60;;;6.60;99.90;;;;;;5062382;28;36537;-79
2022/01/23 05:45:22;;;;;;;30.33;20.73;;;6.60;99.90;;;;;;5062307;27;37996;-79
2022/01/23 05:47:48;;;;;;;29.93;19.40;;;6.60;99.90;;;;;;5079181;27;38548;-79
2022/01/23 05:50:14;;;;;;;33.67;21.47;;;6.60;99.90;;;;;;5063516;28;38035;-80
2022/01/23 05:52:40;;;;;;;37.47;21.97;;;6.60;99.90;;;;;;5058876;28;37898;-79
2022/01/23 05:55:07;;;;;;;33.57;21.80;;;6.60;99.90;;;;;;5079370;27;38708;-79
2022/01/23 05:57:33;;;;;;;33.63;21.27;;;6.60;99.90;;;;;;5063635;28;38288;-80
2022/01/23 05:59:59;;;;;;;34.90;20.40;;;6.60;99.90;;;;;;5079553;28;36808;-79
2022/01/23 06:02:25;;;;;;;29.03;20.67;;;6.60;99.90;;;;;;5064427;27;37768;-80
2022/01/23 06:04:51;;;;;;;27.60;20.07;;;6.60;99.90;;;;;;5079633;28;39820;-80
2022/01/23 06:07:17;;;;;;;30.23;20.60;;;6.60;99.90;;;;;;5060916;28;39577;-80
2022/01/23 06:09:43;;;;;;;32.40;21.10;;;6.60;99.90;;;;;;5077408;28;38121;-79
2022/01/23 06:12:10;;;;;;;31.47;19.83;;;6.60;99.90;;;;;;5082781;27;37298;-79
2022/01/23 06:14:36;;;;;;;31.23;22.27;;;6.60;99.90;;;;;;5078737;28;40987;-80
2022/01/23 06:17:02;;;;;;;29.80;19.77;;;6.60;99.90;;;;;;5081324;28;40218;-79
2022/01/23 06:19:29;;;;;;;39.03;21.50;;;6.50;99.90;;;;;;5083280;28;37501;-80
2022/01/23 06:21:55;;;;;;;32.73;21.93;;;6.50;99.90;;;;;;5063505;28;37929;-80
2022/01/23 06:24:29;;;;;;;33.67;21.43;;;6.60;99.90;;;;;;5061801;28;37991;-80
2022/01/23 06:26:59;;;;;;;36.13;22.40;;;6.60;99.90;;;;;;5078183;27;38454;-79
2022/01/23 06:29:30;;;;;;;36.93;23.43;;;6.60;99.90;;;;;;5078643;28;38655;-79
2022/01/23 06:31:58;;;;;;;36.40;21.97;;;6.60;99.90;;;;;;5059906;28;36585;-80
2022/01/23 06:34:25;;;;;;;36.33;21.77;;;6.60;99.90;;;;;;5080589;28;39065;-79
2022/01/23 06:36:52;;;;;;;32.57;21.53;;;6.50;99.90;;;;;;5076335;27;38593;-79
2022/01/23 06:39:19;;;;;;;35.93;22.10;;;6.50;99.90;;;;;;5059785;28;40374;-79
2022/01/23 06:41:45;;;;;;;40.70;24.00;;;6.50;99.90;;;;;;5056638;28;36863;-79
2022/01/23 06:44:11;;;;;;;43.73;25.87;;;6.50;99.90;;;;;;5061078;28;39150;-79
2022/01/23 06:46:39;;;;;;;38.77;25.23;;;6.50;99.90;;;;;;5075575;27;37121;-81
2022/01/23 06:49:07;;;;;;;39.50;24.33;;;6.50;99.90;;;;;;5056229;28;38189;-79
2022/01/23 06:51:33;;;;;;;35.83;22.50;;;6.60;99.90;;;;;;5061358;28;37735;-79
2022/01/23 06:54:00;;;;;;;38.97;23.07;;;6.60;99.90;;;;;;5061715;28;36554;-80
2022/01/23 06:56:26;;;;;;;43.17;27.37;;;6.50;99.90;;;;;;5061296;28;38610;-80
2022/01/23 06:58:52;;;;;;;43.40;25.53;;;6.50;99.90;;;;;;5079409;28;38727;-79
2022/01/23 07:01:18;;;;;;;38.93;24.73;;;6.50;99.90;;;;;;5062536;27;39163;-79
2022/01/23 07:03:44;;;;;;;36.17;23.90;;;6.50;99.90;;;;;;5078969;28;40175;-79
2022/01/23 07:06:10;;;;;;;44.33;25.43;;;6.50;99.90;;;;;;5079890;27;38139;-79
2022/01/23 07:08:36;;;;;;;36.90;24.53;;;6.50;99.90;;;;;;5081899;28;38374;-80
2022/01/23 07:11:02;;;;;;;47.43;26.77;;;6.50;99.90;;;;;;5082537;27;37107;-79
2022/01/23 07:13:28;;;;;;;44.40;26.77;;;6.50;99.90;;;;;;5061232;28;39648;-80
2022/01/23 07:15:54;;;;;;;47.20;27.83;;;6.50;99.90;;;;;;5078416;27;39008;-79
2022/01/23 07:18:21;;;;;;;40.87;26.43;;;6.50;99.90;;;;;;5081257;27;37706;-80
2022/01/23 07:20:47;;;;;;;49.47;28.10;;;6.50;99.90;;;;;;5062671;28;37749;-79
2022/01/23 07:23:14;;;;;;;50.03;28.97;;;6.50;99.90;;;;;;5082997;27;39277;-80
2022/01/23 07:25:42;;;;;;;53.90;29.70;;;6.50;99.90;;;;;;5062670;28;39590;-80
2022/01/23 07:28:15;;;;;;;42.37;26.23;;;6.60;99.90;;;;;;5058696;28;39304;-80
2022/01/23 07:31:04;;;;;;;47.07;28.07;;;6.50;99.90;;;;;;5061755;28;38945;-80
2022/01/23 07:33:27;;;;;;;41.07;26.27;;;6.50;99.90;;;;;;5079631;28;48666;-81
2022/01/23 07:35:53;;;;;;;41.90;26.73;;;6.50;99.90;;;;;;5080818;28;39185;-79
2022/01/23 07:38:19;;;;;;;40.97;27.13;;;6.50;99.90;;;;;;5058948;28;38108;-80
2022/01/23 07:40:48;;;;;;;50.50;27.63;;;6.50;99.90;;;;;;5081766;27;37805;-80
2022/01/23 07:43:15;;;;;;;46.33;28.03;;;6.50;99.90;;;;;;5060753;28;38130;-79
2022/01/23 07:45:41;;;;;;;50.10;28.97;;;6.50;99.90;;;;;;5080895;27;38303;-79
2022/01/23 07:48:07;;;;;;;47.00;26.07;;;6.50;99.90;;;;;;5060675;28;38143;-79
2022/01/23 07:50:36;;;;;;;45.50;26.63;;;6.50;99.90;;;;;;5064539;28;36394;-79
2022/01/23 07:53:04;;;;;;;51.53;29.80;;;6.60;99.90;;;;;;5081588;27;38889;-79
2022/01/23 07:55:30;;;;;;;46.07;29.03;;;6.50;99.90;;;;;;5082533;27;38495;-80
2022/01/23 07:58:02;;;;;;;48.33;28.67;;;6.60;99.90;;;;;;5064927;28;37421;-80
2022/01/23 08:00:29;;;;;;;46.00;28.30;;;6.60;99.90;;;;;;5061634;28;47327;-80
2022/01/23 08:02:55;;;;;;;48.60;28.07;;;6.50;99.90;;;;;;5080148;27;38948;-80
2022/01/23 08:05:21;;;;;;;43.43;25.33;;;6.50;99.90;;;;;;5063168;27;37327;-80
2022/01/23 08:07:47;;;;;;;39.37;25.53;;;6.50;99.90;;;;;;5079532;28;36545;-80
2022/01/23 08:10:15;;;;;;;39.73;25.73;;;6.50;99.90;;;;;;5081175;28;37295;-80
2022/01/23 08:12:41;;;;;;;44.37;26.73;;;6.50;99.90;;;;;;5062590;28;38267;-79
2022/01/23 08:15:08;;;;;;;40.43;26.77;;;6.50;99.90;;;;;;5065530;27;37569;-79
2022/01/23 08:17:35;;;;;;;46.13;27.33;;;6.50;99.90;;;;;;5083039;27;39275;-80
2022/01/23 08:20:03;;;;;;;43.30;26.97;;;6.50;99.90;;;;;;5073203;28;36708;-79
2022/01/23 08:22:31;;;;;;;42.60;26.13;;;6.50;99.90;;;;;;5076938;28;46900;-79
2022/01/23 08:24:57;;;;;;;45.97;27.57;;;6.40;99.90;;;;;;5062340;28;38201;-80
2022/01/23 08:27:26;;;;;;;48.07;29.17;;;6.50;99.90;;;;;;5081168;28;38549;-79
2022/01/23 08:29:52;;;;;;;51.40;29.53;;;6.50;99.90;;;;;;5079407;28;37424;-79
2022/01/23 08:32:18;;;;;;;46.80;28.80;;;6.50;99.90;;;;;;5079130;28;39786;-79
2022/01/23 08:34:45;;;;;;;50.97;29.30;;;6.50;99.90;;;;;;5080500;27;38274;-79
2022/01/23 08:37:11;;;;;;;42.47;26.53;;;6.60;99.90;;;;;;5075778;27;37978;-80
2022/01/23 08:39:39;;;;;;;46.40;28.73;;;6.60;99.90;;;;;;5081551;28;37554;-79
2022/01/23 08:42:13;;;;;;;48.73;28.53;;;6.50;99.90;;;;;;5080853;28;39107;-79
2022/01/23 08:44:39;;;;;;;44.53;27.87;;;6.50;99.90;;;;;;5064042;28;38727;-79
2022/01/23 08:47:06;;;;;;;44.07;28.17;;;6.60;99.90;;;;;;5058761;28;37317;-80
2022/01/23 08:49:33;;;;;;;45.63;27.47;;;6.60;99.90;;;;;;5059437;28;36666;-80
2022/01/23 08:51:59;;;;;;;53.17;29.73;;;6.60;99.90;;;;;;5082614;27;38756;-79
2022/01/23 08:54:27;;;;;;;28.80;19.73;;;6.70;99.90;;;;;;5066643;28;38381;-81
2022/01/23 08:56:54;;;;;;;44.30;25.17;;;6.80;99.90;;;;;;5069470;28;36058;-81
2022/01/23 08:59:21;;;;;;;39.63;25.70;;;6.90;99.90;;;;;;5069855;28;37847;-81
2022/01/23 09:01:47;;;;;;;45.50;27.37;;;6.90;99.90;;;;;;5067117;28;37712;-79
2022/01/23 09:04:15;;;;;;;47.60;29.37;;;6.90;99.90;;;;;;5079021;28;38377;-80
2022/01/23 09:06:46;;;;;;;42.70;27.13;;;6.90;99.90;;;;;;5080545;27;38015;-80
2022/01/23 09:09:18;;;;;;;41.27;27.83;;;6.90;99.90;;;;;;5077984;28;37521;-80
2022/01/23 09:12:00;;;;;;;42.78;25.80;;;6.90;99.90;;;;;;5057896;28;37575;-80
2022/01/23 09:14:26;;;;;;;40.30;26.02;;;7.00;99.90;;;;;;5081749;28;40552;-80
2022/01/23 09:16:54;;;;;;;42.33;26.20;;;6.90;99.90;;;;;;5057383;27;38087;-80
2022/01/23 09:19:22;;;;;;;43.90;27.80;;;6.90;99.90;;;;;;5079635;28;38306;-80
2022/01/23 09:21:50;;;;;;;42.53;26.73;;;6.90;99.90;;;;;;5081940;27;38634;-80
2022/01/23 09:24:21;;;;;;;38.13;25.93;;;6.90;99.90;;;;;;5058242;28;37262;-80
2022/01/23 09:26:53;;;;;;;40.13;25.57;;;6.80;99.90;;;;;;5078169;27;38871;-79
2022/01/23 09:29:36;;;;;;;37.40;24.90;;;6.80;99.90;;;;;;5078253;28;37022;-80
2022/01/23 09:32:06;;;;;;;41.00;25.93;;;6.90;99.90;;;;;;5061306;28;39499;-79
2022/01/23 09:34:32;;;;;;;39.37;26.83;;;6.90;99.90;;;;;;5062081;28;38264;-80
2022/01/23 09:37:04;;;;;;;39.47;25.83;;;6.90;99.90;;;;;;5061831;28;35534;-80
2022/01/23 09:39:31;;;;;;;36.35;25.58;;;6.90;99.90;;;;;;5063642;28;47424;-79
2022/01/23 09:42:06;;;;;;;40.33;25.33;;;6.90;99.90;;;;;;5060295;28;38173;-80
2022/01/23 09:44:45;;;;;;;41.33;26.60;;;6.90;99.90;;;;;;5079461;28;46856;-80
2022/01/23 09:47:13;;;;;;;38.27;24.77;;;7.00;99.90;;;;;;5059811;28;37232;-79
2022/01/23 09:49:40;;;;;;;42.60;27.07;;;7.00;99.90;;;;;;5061480;28;36808;-80
2022/01/23 09:52:09;;;;;;;37.67;24.57;;;7.00;99.90;;;;;;5076822;27;38519;-79
2022/01/23 09:54:38;;;;;;;37.47;24.50;;;7.00;99.90;;;;;;5064830;28;39195;-79
2022/01/23 09:57:06;;;;;;;37.20;25.23;;;7.00;99.90;;;;;;5059071;28;38390;-79
2022/01/23 09:59:32;;;;;;;36.73;24.83;;;7.00;99.90;;;;;;5058092;28;39045;-80
2022/01/23 10:01:59;;;;;;;35.50;24.60;;;7.00;99.90;;;;;;5057541;28;39522;-80
2022/01/23 10:04:26;;;;;;;38.90;27.03;;;7.10;99.90;;;;;;5064595;28;37577;-81
2022/01/23 10:06:53;;;;;;;36.90;24.97;;;7.20;99.90;;;;;;5079057;27;37945;-81
2022/01/23 10:09:21;;;;;;;43.00;25.60;;;7.20;99.90;;;;;;5079078;28;37333;-80
2022/01/23 10:11:48;;;;;;;36.67;24.77;;;7.30;99.90;;;;;;5080328;27;40011;-81
2022/01/23 10:14:15;;;;;;;39.87;25.50;;;7.20;99.90;;;;;;5080807;28;38470;-80
2022/01/23 10:16:43;;;;;;;35.73;24.67;;;7.10;99.90;;;;;;5081651;27;37926;-81
2022/01/23 10:19:10;;;;;;;37.03;24.10;;;7.10;99.90;;;;;;5063557;28;38018;-80
2022/01/23 10:21:40;;;;;;;34.93;23.60;;;7.20;99.90;;;;;;5060828;28;37930;-80
2022/01/23 10:24:07;;;;;;;36.00;23.47;;;7.20;99.90;;;;;;5080382;28;38558;-80
2022/01/23 10:26:45;;;;;;;42.07;25.33;;;7.20;99.90;;;;;;5059278;28;35990;-80
2022/01/23 10:29:21;;;;;;;35.23;23.10;;;7.30;99.90;;;;;;5081810;28;37481;-80
2022/01/23 10:32:24;;;;;;;32.20;22.07;;;7.30;99.90;;;;;;5080821;27;39854;-80
2022/01/23 10:34:56;;;;;;;34.72;22.90;;;7.30;99.90;;;;;;5029236;28;46333;-81
2022/01/23 10:37:26;;;;;;;33.13;21.33;;;7.40;99.90;;;;;;5081496;28;38269;-80
2022/01/23 10:39:52;;;;;;;36.20;22.83;;;7.50;99.90;;;;;;5060721;28;38155;-80
2022/01/23 10:51:22;;;;;;;33.03;22.23;;;7.60;99.90;;;;;;5049406;28;37592;-81
2022/01/23 10:54:15;;;;;;;31.23;20.93;;;7.60;99.90;;;;;;5081635;28;47246;-78
2022/01/23 10:56:55;;;;;;;29.55;21.00;;;7.80;99.90;;;;;;5059092;28;47292;-79
2022/01/23 10:59:22;;;;;;;30.23;20.93;;;7.80;99.90;;;;;;5080630;28;38184;-79
2022/01/23 11:02:24;;;;;;;33.37;23.30;;;7.80;99.90;;;;;;5081896;27;38742;-79
2022/01/23 11:04:53;;;;;;;31.80;21.40;;;7.90;99.90;;;;;;5021423;28;48529;-79
2022/01/23 11:07:21;;;;;;;30.10;21.10;;;7.80;99.90;;;;;;5065654;28;39092;-79
2022/01/23 11:09:47;;;;;;;30.13;21.23;;;7.80;99.90;;;;;;5061866;28;40397;-79
2022/01/23 11:17:54;;;;;;;30.50;20.33;;;7.70;99.90;;;;;;5068940;28;49170;-79
2022/01/23 11:20:37;;;;;;;30.80;21.97;;;7.70;99.90;;;;;;5061845;27;37730;-79
2022/01/23 11:23:31;;;;;;;33.92;21.30;;;7.70;99.90;;;;;;5061234;28;38374;-79
2022/01/23 11:26:00;;;;;;;29.90;21.40;;;7.70;99.90;;;;;;5059883;28;38900;-79
2022/01/23 11:28:36;;;;;;;30.47;20.87;;;7.70;99.90;;;;;;5080850;28;40801;-79
2022/01/23 11:31:05;;;;;;;29.83;20.77;;;7.80;99.90;;;;;;5059120;28;37919;-79
2022/01/23 11:33:31;;;;;;;30.17;21.30;;;7.90;99.90;;;;;;5064359;28;36576;-79
2022/01/23 11:35:58;;;;;;;31.27;21.30;;;7.90;99.90;;;;;;5078318;28;38350;-79
2022/01/23 11:38:25;;;;;;;26.33;19.63;;;7.90;99.90;;;;;;5059069;28;39801;-79
2022/01/23 11:54:38;;;;;;;24.40;18.40;;;8.00;99.90;;;;;;5075637;28;49898;-78
2022/01/23 11:57:25;;;;;;;25.70;18.57;;;8.10;99.90;;;;;;5074257;28;38844;-77
2022/01/23 11:59:57;;;;;;;31.27;20.20;;;8.20;99.90;;;;;;5079001;28;38216;-78
2022/01/23 12:02:30;;;;;;;26.52;19.33;;;8.10;99.90;;;;;;5081226;27;38531;-77
2022/01/23 12:05:16;;;;;;;24.93;18.63;;;8.00;99.90;;;;;;5081518;28;37600;-78
2022/01/23 12:07:44;;;;;;;25.53;19.77;;;8.10;99.90;;;;;;5062125;28;47747;-78
2022/01/23 12:10:27;;;;;;;24.47;19.30;;;8.00;99.90;;;;;;5065243;27;37108;-78
2022/01/23 12:13:21;;;;;;;22.45;18.58;;;8.10;99.90;;;;;;5069363;28;37054;-78
2022/01/23 12:18:39;;;;;;;26.17;18.77;;;8.40;99.90;;;;;;5082824;28;49462;-78
2022/01/23 12:21:29;;;;;;;27.63;20.10;;;8.40;99.90;;;;;;5067503;28;38221;-78
2022/01/23 12:24:09;;;;;;;30.30;21.30;;;8.50;99.90;;;;;;5060894;27;35902;-77
2022/01/23 12:26:35;;;;;;;26.13;21.30;;;8.40;99.90;;;;;;5062591;28;47695;-78
2022/01/23 12:29:18;;;;;;;27.07;20.50;;;8.30;99.90;;;;;;5080601;28;38755;-77
2022/01/23 12:31:46;;;;;;;27.00;20.87;;;8.30;99.90;;;;;;5061899;28;47465;-78
2022/01/23 12:34:12;;;;;;;28.20;20.90;;;8.30;99.90;;;;;;5050203;28;37905;-77
2022/01/23 12:36:42;;;;;;;30.00;21.93;;;8.10;99.90;;;;;;5078804;28;37030;-77
2022/01/23 12:39:08;;;;;;;30.53;22.87;;;8.10;99.90;;;;;;5062348;28;38140;-77
2022/01/23 12:41:36;;;;;;;30.13;22.30;;;8.10;99.90;;;;;;5058114;28;37389;-77
2022/01/23 12:44:04;;;;;;;29.53;22.33;;;8.20;99.90;;;;;;5081127;27;38261;-76
2022/01/23 12:46:36;;;;;;;28.60;21.40;;;8.40;99.90;;;;;;5078052;27;37936;-77
2022/01/23 12:49:22;;;;;;;28.00;22.35;;;8.40;99.90;;;;;;5081498;27;38939;-77
2022/01/23 12:52:12;;;;;;;29.23;22.07;;;8.50;99.90;;;;;;5067504;28;37219;-77
2022/01/23 12:54:58;;;;;;;26.33;21.07;;;8.40;99.90;;;;;;5066984;28;47263;-77
2022/01/23 12:57:42;;;;;;;26.50;21.30;;;8.40;99.90;;;;;;5065312;28;36452;-77
2022/01/23 13:00:16;;;;;;;27.90;22.03;;;8.50;99.90;;;;;;5065816;28;38031;-77
2022/01/23 13:02:49;;;;;;;26.63;20.27;;;8.50;99.90;;;;;;5081284;27;38457;-77
2022/01/23 13:05:16;;;;;;;27.67;21.70;;;8.50;99.90;;;;;;5077077;27;38840;-77
2022/01/23 13:08:01;;;;;;;28.67;22.30;;;8.60;99.90;;;;;;5063437;28;36343;-76
2022/01/23 13:13:48;;;;;;;32.63;22.87;;;8.50;99.90;;;;;;5079609;27;38639;-77
2022/01/23 13:19:05;;;;;;;26.85;21.45;;;8.30;99.90;;;;;;5075400;28;37585;-77
2022/01/23 13:32:46;;;;;;;31.70;23.40;;;8.20;99.90;;;;;;5077499;27;39475;-77
2022/01/23 13:35:15;;;;;;;33.17;25.07;;;8.20;99.90;;;;;;5071574;27;38406;-77
2022/01/23 13:37:45;;;;;;;33.73;23.80;;;8.00;99.90;;;;;;5082678;27;38130;-77
2022/01/23 13:40:13;;;;;;;33.33;25.33;;;8.00;99.90;;;;;;5076636;28;37562;-77
2022/01/23 13:51:26;;;;;;;33.83;24.27;;;8.10;99.90;;;;;;5079111;27;38614;-77
2022/01/23 13:59:18;;;;;;;33.43;23.67;;;8.10;99.90;;;;;;5076442;28;39222;-77
2022/01/23 14:01:52;;;;;;;30.30;23.63;;;8.10;99.90;;;;;;5060503;28;36540;-77
2022/01/23 14:04:21;;;;;;;33.27;23.87;;;8.10;99.90;;;;;;5060018;28;38010;-77
2022/01/23 14:06:48;;;;;;;29.57;22.80;;;8.10;99.90;;;;;;5077066;27;38736;-76
2022/01/23 14:09:16;;;;;;;31.80;23.60;;;8.10;99.90;;;;;;5058030;28;37831;-77
2022/01/23 14:11:44;;;;;;;34.37;24.80;;;8.10;99.90;;;;;;5074860;27;38048;-78
2022/01/23 14:14:23;;;;;;;34.23;23.97;;;8.20;99.90;;;;;;5074202;28;39091;-77
2022/01/23 14:16:52;;;;;;;35.93;25.27;;;8.10;99.90;;;;;;5061525;28;38877;-77
2022/01/23 14:19:23;;;;;;;34.10;23.73;;;7.90;99.90;;;;;;5054464;28;38149;-77
2022/01/23 14:21:52;;;;;;;32.17;23.50;;;7.90;99.90;;;;;;5053790;27;37193;-77
2022/01/23 14:24:36;;;;;;;37.97;24.43;;;7.90;99.90;;;;;;5075017;28;39658;-77
2022/01/23 14:27:06;;;;;;;33.17;24.47;;;7.90;99.90;;;;;;5076323;27;38660;-76
2022/01/23 14:29:48;;;;;;;31.93;22.97;;;7.90;99.90;;;;;;5066178;28;38262;-77
2022/01/23 14:32:35;;;;;;;31.17;23.23;;;7.90;99.90;;;;;;5056724;28;36354;-77
2022/01/23 14:35:13;;;;;;;32.10;21.87;;;7.90;99.90;;;;;;5075389;28;38524;-77
2022/01/23 14:37:41;;;;;;;33.20;22.83;;;7.80;99.90;;;;;;5014671;28;47341;-77
2022/01/23 14:40:21;;;;;;;32.60;24.23;;;7.80;99.90;;;;;;5029984;28;38939;-77
2022/01/23 14:43:00;;;;;;;33.43;23.17;;;7.90;99.90;;;;;;5052477;28;36062;-77
2022/01/23 14:45:28;;;;;;;32.17;24.07;;;8.00;99.90;;;;;;5053840;28;37533;-77
2022/01/23 14:47:54;;;;;;;33.57;25.87;;;7.90;99.90;;;;;;5053419;28;36474;-77
2022/01/23 14:50:24;;;;;;;35.63;25.00;;;8.00;99.90;;;;;;5070163;27;37677;-77
2022/01/23 14:52:51;;;;;;;36.83;25.23;;;8.00;99.90;;;;;;5071954;28;37510;-77
2022/01/23 14:55:20;;;;;;;33.53;24.40;;;8.00;99.90;;;;;;5076274;27;38821;-79
2022/01/23 14:57:47;;;;;;;31.50;23.90;;;7.90;99.90;;;;;;5053932;28;37518;-77
2022/01/23 15:00:14;;;;;;;33.70;23.67;;;7.90;99.90;;;;;;5057324;28;39262;-77
2022/01/23 15:02:41;;;;;;;33.43;25.30;;;7.80;99.90;;;;;;5050334;28;36156;-77
2022/01/23 15:05:08;;;;;;;37.03;25.97;;;7.80;99.90;;;;;;5072959;27;38759;-76
2022/01/23 15:07:40;;;;;;;34.03;24.93;;;7.70;99.90;;;;;;5055845;28;36425;-77
2022/01/23 15:10:09;;;;;;;33.42;25.33;;;7.70;99.90;;;;;;5070493;27;38495;-77
2022/01/23 15:12:35;;;;;;;37.13;26.03;;;7.70;99.90;;;;;;5055213;28;37403;-77
2022/01/23 15:15:03;;;;;;;36.83;25.80;;;7.70;99.90;;;;;;5051032;28;38699;-77
2022/01/23 15:17:29;;;;;;;33.53;24.47;;;7.70;99.90;;;;;;5056250;28;47211;-77
2022/01/23 15:19:56;;;;;;;34.40;25.20;;;7.70;99.90;;;;;;5055541;28;37050;-77
2022/01/23 15:22:23;;;;;;;35.43;25.83;;;7.70;99.90;;;;;;5053133;28;37254;-77
2022/01/23 15:24:49;;;;;;;37.93;26.27;;;7.80;99.90;;;;;;5060638;28;38037;-76
2022/01/23 15:27:16;;;;;;;34.10;24.83;;;7.80;99.90;;;;;;5074526;28;39424;-77
2022/01/23 15:29:43;;;;;;;29.60;23.63;;;7.80;99.90;;;;;;5078245;28;36384;-77
2022/01/23 15:32:10;;;;;;;31.17;22.57;;;7.70;99.90;;;;;;5074107;27;38099;-77
2022/01/23 15:34:36;;;;;;;31.17;23.63;;;7.70;99.90;;;;;;5075061;28;38778;-77
2022/01/23 15:37:03;;;;;;;32.10;24.50;;;7.70;99.90;;;;;;5057284;28;38133;-76
2022/01/23 15:39:30;;;;;;;32.90;24.77;;;7.70;99.90;;;;;;5054368;28;36861;-76
2022/01/23 15:41:57;;;;;;;39.23;26.73;;;7.70;99.90;;;;;;5073876;27;37421;-77
2022/01/23 15:44:24;;;;;;;34.50;25.83;;;7.70;99.90;;;;;;5076579;28;40273;-77
2022/01/23 15:46:50;;;;;;;38.70;27.03;;;7.60;99.90;;;;;;5057788;28;39731;-77
2022/01/23 15:49:18;;;;;;;39.53;27.00;;;7.60;99.90;;;;;;5055947;28;38443;-77
2022/01/23 15:51:47;;;;;;;36.57;26.90;;;7.50;99.90;;;;;;5071463;27;38345;-77
2022/01/23 15:54:18;;;;;;;32.90;25.40;;;7.50;99.90;;;;;;5056347;28;40147;-77
2022/01/23 15:56:47;;;;;;;38.30;26.57;;;7.50;99.90;;;;;;5069002;27;37789;-77
2022/01/23 15:59:15;;;;;;;38.33;27.07;;;7.50;99.90;;;;;;5069349;27;37992;-77
2022/01/23 16:01:42;;;;;;;40.23;28.10;;;7.50;99.90;;;;;;5075706;27;37535;-77
2022/01/23 16:04:08;;;;;;;40.60;27.90;;;7.50;99.90;;;;;;5052366;28;37168;-77
2022/01/23 16:06:34;;;;;;;37.33;27.43;;;7.40;99.90;;;;;;5057168;28;39965;-77
2022/01/23 16:09:01;;;;;;;39.93;27.90;;;7.40;99.90;;;;;;5074310;28;38639;-77
2022/01/23 16:11:27;;;;;;;41.40;28.23;;;7.40;99.90;;;;;;5051487;28;39823;-77
2022/01/23 16:13:53;;;;;;;35.70;27.13;;;7.40;99.90;;;;;;5056160;28;36808;-77